Metar Cercanos

 

LEPA - Palma De Mallorc, Spain
Distance from station: ONO 38km
Actualización: Sun, 23-Jan-2022 1:00pm CET
Parcialmente nuboso
Parcialmente nuboso
 Viento del ESE
Viento: ESE 6 km/h
Temperatura: 13°C
Rocío: 4°C
Humedad: 55%
Barómetro: 1028 hPa
Clouds: Parcialmente nuboso
Visibility: 10 km
Cloud details: Few Clouds 792 m
Parcialmente nuboso 1097 m
2022/01/23 12:00 LEPA 231200Z 11003KT 070V160 9999 FEW026 SCT036 13/04 Q1028 NOSIG
LEMH - Mahon/Menorca Is, Spain
Distance from station: ENE 105km
Actualización: Sun, 23-Jan-2022 1:00pm CET
Parcialmente nuboso
Parcialmente nuboso
 Viento del NE
Viento: NE 11 km/h
Temperatura: 13°C
Rocío: 6°C
Humedad: 63%
Barómetro: 1029 hPa
Clouds: Parcialmente nuboso
Visibility: 10 km
Cloud details: Parcialmente nuboso 1128 m
Parcialmente nuboso 1433 m
2022/01/23 12:00 LEMH 231200Z 05006KT 010V100 9999 SCT037 SCT047 13/06 Q1029
 
LEIB - Ibiza/Es Codola, Spain
Distance from station: OSO 165km
Actualización: Sun, 23-Jan-2022 1:00pm CET
Parcialmente nuboso
Parcialmente nuboso
 Viento del E
Viento: E 15 km/h
Temperatura: 13°C
Rocío: 6°C
Humedad: 63%
Barómetro: 1028 hPa
Clouds: Parcialmente nuboso
Visibility: 10 km
Cloud details: Parcialmente nuboso 1280 m
2022/01/23 12:00 LEIB 231200Z 09008KT 050V130 9999 SCT042 13/06 Q1028 NOSIG
LEBL - Barcelona Airpor, Spain
Distance from station: NNO 225km
Actualización: Sun, 23-Jan-2022 1:00pm CET
Few Clouds
Few Clouds
 Viento del N
Viento: N 2 km/h
Temperatura: 11°C
Rocío: 2°C
Humedad: 54%
Barómetro: 1029 hPa
Clouds: Few Clouds
Visibility: 10 km
Cloud details: Few Clouds 762 m
2022/01/23 12:00 LEBL 231200Z 35001KT 9999 FEW025 11/02 Q1029 NOSIG
 
LEVC - Valencia (civ/Mi, Spain
Distance from station: NO 188km
Actualización: Sun, 23-Jan-2022 1:00pm CET
Muy nuboso
Muy nuboso
 Viento del E
Viento: E 6 km/h
Temperatura: 11°C
Rocío: 4°C
Humedad: 62%
Barómetro: 1028 hPa
Clouds: Muy nuboso
Visibility: 10 km
Cloud details: Parcialmente nuboso 1219 m
Muy nuboso 1524 m
2022/01/23 12:00 LEVC 231200Z 09003KT 030V140 9999 SCT040 BKN050 11/04 Q1028 NOSIG
LEGE - Gerona/Costa Bra, Spain
Distance from station: N 276km
Actualización: Sun, 23-Jan-2022 1:00pm CET
Despejado
Despejado
 Viento del SSO
Viento: SSO 4 km/h
Temperatura: 11°C
Rocío: 0°C
Humedad: 47%
Barómetro: 1028 hPa
Resumen: Despejado
Visibility: greater than 10 km
2022/01/23 12:00 LEGE 231200Z 20002KT CAVOK 11/00 Q1028
 
LEAL - Alicante/El Alte, Spain
Distance from station: OSO 344km
Actualización: Sun, 23-Jan-2022 1:00pm CET
Parcialmente nuboso
Parcialmente nuboso
 Viento del NNE
Viento: NNE 7 km/h
Temperatura: 13°C
Rocío: 7°C
Humedad: 67%
Barómetro: 1028 hPa
Clouds: Parcialmente nuboso
Visibility: 10 km
Cloud details: Few Clouds 366 m
Parcialmente nuboso 1341 m
2022/01/23 12:00 LEAL 231200Z 03004KT 360V070 9999 FEW012 SCT044 13/07 Q1028 NOSIG
LEAM - Almeria Airport, Spain
Distance from station: SSO 56km
Actualización: Sun, 23-Jan-2022 1:00pm CET
Muy nuboso
Muy nuboso
 Viento del ENE
Viento: ENE 30 km/h
Temperatura: 15°C
Rocío: 6°C
Humedad: 55%
Barómetro: 1026 hPa
Clouds: Muy nuboso
Visibility: 10 km
Cloud details: Few Clouds 1067 m
Muy nuboso 1829 m
2022/01/23 12:00 LEAM 231200Z 07016KT 9999 FEW035 BKN060 15/06 Q1026
 
LEZG - Zaragoza (mil/Ci, Spain
Distance from station: NO 431km
Actualización: Sun, 23-Jan-2022 1:00pm CET
Despejado
Despejado
 Viento del E
Viento: E 6 km/h
Temperatura: 5°C
Rocío: -2°C
Humedad: 61%
Barómetro: 1029 hPa
Resumen: Despejado
Visibility: greater than 10 km
2022/01/23 12:00 LEZG 231200Z 09003KT 030V140 CAVOK 05/M02 Q1029
LEMD - Madrid/Barajas, Spain
Distance from station: ONO 234km
Actualización: Sun, 23-Jan-2022 1:00pm CET
Few Clouds
Few Clouds
 Viento del SO
Viento: SO 4 km/h
Temperatura: 9°C
Rocío: 2°C
Humedad: 62%
Barómetro: 1026 hPa
Clouds: Few Clouds
Visibility: 10 km
Cloud details: Few Clouds 762 m
2022/01/23 12:00 LEMD 231200Z 22002KT 9999 FEW025 09/02 Q1026 NOSIG
 
LEGR - Granada Airport, Spain
Distance from station: OSO 62km
Actualización: Sun, 23-Jan-2022 1:00pm CET
Despejado
Despejado
 Viento del ENE
Viento: ENE 9 km/h
Temperatura: 12°C
Rocío: 3°C
Humedad: 54%
Barómetro: 1024 hPa
Resumen: Despejado
Visibility: greater than 10 km
2022/01/23 12:00 LEGR 231200Z 07005KT 020V140 CAVOK 12/03 Q1024
LEMG - Malaga (civ/Mil), Spain
Distance from station: OSO 227km
Actualización: Sun, 23-Jan-2022 1:00pm CET
Muy nuboso
Muy nuboso
 Viento del E
Viento: E 26 km/h
Temperatura: 15°C
Rocío: 9°C
Humedad: 68%
Barómetro: 1026 hPa
Clouds: Muy nuboso
Visibility: 10 km
Cloud details: Muy nuboso 823 m
Muy nuboso 1158 m
Muy nuboso 1463 m
2022/01/23 12:00 LEMG 231200Z 10014KT 070V130 9999 BKN027 BKN038 BKN048 15/09 Q1026 NOSIG
 
LEZL - Sevilla (civ/Mil, Spain
Distance from station: S 318km
Actualización: Sun, 23-Jan-2022 1:00pm CET
Despejado
Despejado
 Viento del ENE
Viento: ENE 20 km/h
Temperatura: 14°C
Rocío: 6°C
Humedad: 59%
Barómetro: 1023 hPa
Resumen: Despejado
Visibility: greater than 10 km
2022/01/23 12:00 LEZL 231200Z 07011KT CAVOK 14/06 Q1023 NOSIG
LEVT - Vitoria, Spain
Distance from station: NO 226km
Actualización: Sun, 23-Jan-2022 1:00pm CET
Parcialmente nuboso
Parcialmente nuboso
 Viento del SSO
Viento: SSO 11 km/h
Temperatura: 4°C
Sensación frio: 1°C
Rocío: -1°C
Humedad: 70%
Barómetro: 1027 hPa
Clouds: Parcialmente nuboso
Visibility: 9 km
2022/01/23 12:00 LEVT 231200Z 21006KT 190V250 9000 NSC 04/M01 Q1027
 
LEBB - Bilbao/Sondica, Spain
Distance from station: NNO 235km
Actualización: Sun, 23-Jan-2022 1:00pm CET
Despejado
Despejado
 Viento del ESE
Viento: ESE 13 km/h
Temperatura: 10°C
Sensación frio: 8°C
Rocío: 1°C
Humedad: 54%
Barómetro: 1027 hPa
Resumen: Despejado
Visibility: greater than 10 km
2022/01/23 12:00 LEBB 231200Z 11007KT 070V150 CAVOK 10/01 Q1027 NOSIG
LESO - San Sebastian/Fu, Spain
Distance from station: N 231km
Actualización: Sun, 23-Jan-2022 1:00pm CET
Despejado
Despejado
 Viento del varies
Viento: varies 2 km/h
Temperatura: 9°C
Rocío: 2°C
Humedad: 62%
Barómetro: 1028 hPa
Resumen: Despejado
Visibility: greater than 10 km
2022/01/23 12:00 LESO 231200Z VRB01KT CAVOK 09/02 Q1028
 
LEVD - Valladolid(Mil/C, Spain
Distance from station: ONO 239km
Actualización: Sun, 23-Jan-2022 1:00pm CET
Despejado
Despejado
 Viento del varies
Viento: varies 2 km/h
Temperatura: 5°C
Rocío: -1°C
Humedad: 66%
Barómetro: 1025 hPa
Resumen: Despejado
Visibility: greater than 10 km
2022/01/23 12:00 LEVD 231200Z VRB01KT CAVOK 05/M01 Q1025
LESA - Salamanca (civ/M, Spain
Distance from station: ONO 349km
Actualización: Sun, 23-Jan-2022 1:00pm CET
Despejado
Despejado
 Viento del varies
Viento: varies 2 km/h
Temperatura: 7°C
Rocío: -2°C
Humedad: 53%
Barómetro: 1025 hPa
Resumen: Despejado
Visibility: greater than 10 km
2022/01/23 12:00 LESA 231200Z VRB01KT CAVOK 07/M02 Q1025
 
LEXJ - Santander/Paraya, Spain
Distance from station: NNO 247km
Actualización: Sun, 23-Jan-2022 1:00pm CET
Despejado
Despejado
 Viento del SSE
Viento: SSE 4 km/h
Temperatura: 9°C
Rocío: 2°C
Humedad: 62%
Barómetro: 1026 hPa
Resumen: Despejado
Visibility: greater than 10 km
2022/01/23 12:00 LEXJ 231200Z 15002KT CAVOK 09/02 Q1026
LEAS - Asturias/Aviles, Spain
Distance from station: NO 214km
Actualización: Sun, 23-Jan-2022 1:00pm CET
Parcialmente nuboso
Parcialmente nuboso
 Viento del E
Viento: E 19 km/h
Temperatura: 9°C
Sensación frio: 6°C
Rocío: 4°C
Humedad: 71%
Barómetro: 1026 hPa
Clouds: Parcialmente nuboso
Visibility: 10 km
Cloud details: Parcialmente nuboso 610 m
2022/01/23 12:00 LEAS 231200Z 10010KT 070V150 9999 SCT020 09/04 Q1026 NOSIG
 
LECO - La Coruna/Alvedr, Spain
Distance from station: ONO 222km
Actualización: Sun, 23-Jan-2022 1:00pm CET
Despejado
Despejado
 Viento del SSE
Viento: SSE 7 km/h
Temperatura: 11°C
Rocío: 3°C
Humedad: 58%
Barómetro: 1025 hPa
Resumen: Despejado
Visibility: greater than 10 km
2022/01/23 12:00 LECO 231200Z 16004KT CAVOK 11/03 Q1025 NOSIG
LEVX - Vigo/Peinador, Spain
Distance from station: O 214km
Actualización: Sun, 23-Jan-2022 1:00pm CET
Despejado
Despejado
 Viento del SSO
Viento: SSO 9 km/h
Temperatura: 8°C
Sensación frio: 6°C
Rocío: 1°C
Humedad: 62%
Barómetro: 1025 hPa
Resumen: Despejado
Visibility: greater than 10 km
2022/01/23 12:00 LEVX 231200Z 21005KT 150V240 CAVOK 08/01 Q1025 NOSIG